createdAt,value
2022-10-06T00:05:27.240Z,11.08
2022-10-06T00:10:56.180Z,11.03
2022-10-06T00:16:23.529Z,10.99
2022-10-06T00:21:49.440Z,10.95
2022-10-06T00:27:13.726Z,10.90
2022-10-06T00:32:39.101Z,10.93
2022-10-06T00:38:05.446Z,10.87
2022-10-06T00:43:55.289Z,10.82
2022-10-06T00:49:22.078Z,10.87
2022-10-06T00:54:48.332Z,10.81
2022-10-06T01:00:13.895Z,10.78
2022-10-06T01:05:43.499Z,10.82
2022-10-06T01:11:13.242Z,10.87
2022-10-06T01:16:40.639Z,10.84
2022-10-06T01:22:08.813Z,10.90
2022-10-06T01:27:37.152Z,10.70
2022-10-06T01:33:05.477Z,10.58
2022-10-06T01:38:33.976Z,10.56
2022-10-06T01:44:02.223Z,10.56
2022-10-06T01:49:26.927Z,10.59
2022-10-06T01:54:51.613Z,10.57
2022-10-06T02:00:17.293Z,10.45
2022-10-06T02:05:43.576Z,10.49
2022-10-06T02:11:12.302Z,10.41
2022-10-06T02:16:41.878Z,10.45
2022-10-06T02:22:06.101Z,10.50
2022-10-06T02:27:29.964Z,10.49
2022-10-06T02:32:56.459Z,10.41
2022-10-06T02:38:21.928Z,10.47
2022-10-06T02:43:47.784Z,10.49
2022-10-06T02:49:14.456Z,10.46
2022-10-06T02:54:39.342Z,10.42
2022-10-06T03:00:04.017Z,10.32
2022-10-06T03:05:32.061Z,10.33
2022-10-06T03:11:01.124Z,10.30
2022-10-06T03:16:32.091Z,10.40
2022-10-06T03:21:58.819Z,10.46
2022-10-06T03:27:31.294Z,10.38
2022-10-06T03:33:01.911Z,10.42
2022-10-06T03:38:27.756Z,10.35
2022-10-06T03:43:53.907Z,10.34
2022-10-06T03:49:18.052Z,10.37
2022-10-06T03:54:44.388Z,10.36
2022-10-06T04:00:09.493Z,10.25
2022-10-06T04:05:36.469Z,10.18
2022-10-06T04:11:07.964Z,10.13
2022-10-06T04:16:33.395Z,10.11
2022-10-06T04:21:58.456Z,10.20
2022-10-06T04:27:30.862Z,10.24
2022-10-06T04:33:05.141Z,10.25
2022-10-06T04:38:30.796Z,10.23
2022-10-06T04:44:00.816Z,10.35
2022-10-06T04:49:25.648Z,10.41
2022-10-06T04:54:53.098Z,10.60
2022-10-06T05:00:25.440Z,10.81
2022-10-06T05:05:50.454Z,11.11
2022-10-06T05:11:15.177Z,11.26
2022-10-06T05:16:45.221Z,11.39
2022-10-06T05:22:10.454Z,11.53
2022-10-06T05:27:35.677Z,11.65
2022-10-06T05:33:01.283Z,11.85
2022-10-06T05:38:27.855Z,12.00
2022-10-06T05:43:53.123Z,12.20
2022-10-06T05:49:19.150Z,12.18
2022-10-06T05:54:51.880Z,12.32
2022-10-06T06:00:17.225Z,12.52
2022-10-06T06:05:45.972Z,12.79
2022-10-06T06:11:11.542Z,12.84
2022-10-06T06:16:37.157Z,12.94
2022-10-06T06:22:03.168Z,13.16
2022-10-06T06:27:30.943Z,13.36
2022-10-06T06:33:00.184Z,13.44
2022-10-06T06:38:27.337Z,13.53
2022-10-06T06:43:53.490Z,13.70
2022-10-06T06:49:26.404Z,13.88
2022-10-06T06:54:57.225Z,14.16
2022-10-06T07:00:23.552Z,14.30
2022-10-06T07:05:48.012Z,14.53
2022-10-06T07:11:18.337Z,14.72
2022-10-06T07:17:00.697Z,15.06
2022-10-06T07:22:46.831Z,16.05
2022-10-06T07:28:17.237Z,17.16
2022-10-06T07:33:41.885Z,17.36
2022-10-06T07:39:06.877Z,17.07
2022-10-06T07:44:32.994Z,18.42
2022-10-06T07:49:59.396Z,17.47
2022-10-06T07:55:25.068Z,17.58
2022-10-06T08:01:16.398Z,18.57
2022-10-06T08:14:04.045Z,18.29
2022-10-06T08:19:30.755Z,18.73
2022-10-06T08:25:05.774Z,18.61
2022-10-06T08:30:30.830Z,18.22
2022-10-06T08:42:34.833Z,19.11
2022-10-06T08:48:03.885Z,20.35
2022-10-06T08:53:35.914Z,19.87
2022-10-06T08:59:04.794Z,19.59
2022-10-06T09:04:31.906Z,19.51
2022-10-06T09:16:43.685Z,19.66
2022-10-06T09:22:16.808Z,19.62
2022-10-06T09:34:52.248Z,21.90
2022-10-06T09:40:35.324Z,22.42
2022-10-06T09:46:21.635Z,23.56
2022-10-06T09:52:04.192Z,23.02
2022-10-06T09:57:31.634Z,22.24
2022-10-06T10:03:01.292Z,22.17
2022-10-06T10:08:30.789Z,23.03
2022-10-06T10:13:57.793Z,23.92
2022-10-06T10:19:28.048Z,24.26
2022-10-06T10:25:05.533Z,24.98
2022-10-06T10:30:29.778Z,25.37
2022-10-06T10:35:57.340Z,25.32
2022-10-06T10:41:27.647Z,25.08
2022-10-06T10:46:57.191Z,24.79
2022-10-06T10:52:30.382Z,24.79
2022-10-06T10:58:00.665Z,23.94
2022-10-06T11:03:25.402Z,23.95
2022-10-06T11:08:59.066Z,23.52
2022-10-06T11:14:42.409Z,22.33
2022-10-06T11:20:26.864Z,23.43
2022-10-06T11:26:04.964Z,23.11
2022-10-06T11:31:42.447Z,23.08
2022-10-06T11:37:19.192Z,23.80
2022-10-06T11:42:51.736Z,23.37
2022-10-06T11:48:25.826Z,22.76
2022-10-06T11:53:50.315Z,22.72
2022-10-06T11:59:31.459Z,21.58
2022-10-06T12:05:55.351Z,20.77
2022-10-06T12:11:43.814Z,21.93
2022-10-06T12:17:19.760Z,21.56
2022-10-06T12:22:50.120Z,21.83
2022-10-06T12:28:25.373Z,20.94
2022-10-06T12:33:50.526Z,21.33
2022-10-06T12:39:23.577Z,21.99
2022-10-06T12:44:51.623Z,21.52
2022-10-06T12:50:21.810Z,22.06
2022-10-06T12:55:51.885Z,22.00
2022-10-06T13:01:19.865Z,22.29
2022-10-06T13:06:50.465Z,22.01
2022-10-06T13:12:27.456Z,22.08
2022-10-06T13:17:55.139Z,21.91
2022-10-06T13:23:25.472Z,20.94
2022-10-06T13:28:52.893Z,21.31
2022-10-06T13:34:22.402Z,21.60
2022-10-06T13:39:48.168Z,21.89
2022-10-06T13:45:16.205Z,21.62
2022-10-06T13:50:46.660Z,22.03
2022-10-06T13:56:38.390Z,22.27
2022-10-06T14:02:22.837Z,21.72
2022-10-06T14:07:52.618Z,21.36
2022-10-06T14:13:19.623Z,21.66
2022-10-06T14:18:46.842Z,21.53
2022-10-06T14:24:26.145Z,21.35
2022-10-06T14:29:51.838Z,20.96
2022-10-06T14:35:16.001Z,20.89
2022-10-06T14:40:43.084Z,20.95
2022-10-06T14:46:10.359Z,20.50
2022-10-06T14:51:36.940Z,19.74
2022-10-06T14:57:02.666Z,19.50
2022-10-06T15:02:27.068Z,19.24
2022-10-06T15:08:11.757Z,19.13
2022-10-06T15:13:37.181Z,18.67
2022-10-06T15:19:05.510Z,18.41
2022-10-06T15:24:29.456Z,18.07
2022-10-06T15:29:57.497Z,17.97
2022-10-06T15:35:23.423Z,17.38
2022-10-06T15:40:48.020Z,17.04
2022-10-06T15:46:14.738Z,16.73
2022-10-06T15:51:47.389Z,16.71
2022-10-06T15:57:20.336Z,16.57
2022-10-06T16:02:48.335Z,16.35
2022-10-06T16:08:12.439Z,16.03
2022-10-06T16:13:37.380Z,15.95
2022-10-06T16:19:04.202Z,15.80
2022-10-06T16:24:28.757Z,15.71
2022-10-06T16:29:53.846Z,15.68
2022-10-06T16:35:20.327Z,15.48
2022-10-06T16:40:54.971Z,15.36
2022-10-06T16:46:21.220Z,15.25
2022-10-06T16:51:48.228Z,15.18
2022-10-06T16:57:12.924Z,15.11
2022-10-06T17:02:38.751Z,14.97
2022-10-06T17:08:04.951Z,14.94
2022-10-06T17:13:28.981Z,14.85
2022-10-06T17:18:55.145Z,14.88
2022-10-06T17:24:21.072Z,14.90
2022-10-06T17:29:45.805Z,14.81
2022-10-06T17:35:11.643Z,14.72
2022-10-06T17:40:44.503Z,14.69
2022-10-06T17:46:13.190Z,14.70
2022-10-06T17:51:40.793Z,14.68
2022-10-06T17:57:06.639Z,14.66
2022-10-06T18:02:31.565Z,14.54
2022-10-06T18:07:58.733Z,14.49
2022-10-06T18:13:24.931Z,14.40
2022-10-06T18:18:51.890Z,14.39
2022-10-06T18:24:18.310Z,14.41
2022-10-06T18:29:44.046Z,14.38
2022-10-06T18:40:55.793Z,14.26
2022-10-06T18:46:44.614Z,14.24
2022-10-06T18:52:09.836Z,14.14
2022-10-06T18:57:34.557Z,14.05
2022-10-06T19:03:00.895Z,14.03
2022-10-06T19:08:26.475Z,13.99
2022-10-06T19:13:53.203Z,13.92
2022-10-06T19:19:21.977Z,13.94
2022-10-06T19:24:47.907Z,13.87
2022-10-06T19:30:14.600Z,13.92
2022-10-06T19:35:40.023Z,13.91
2022-10-06T19:41:18.361Z,13.85
2022-10-06T19:46:43.447Z,13.79
2022-10-06T19:52:10.851Z,13.78
2022-10-06T19:57:35.455Z,13.87
2022-10-06T20:02:59.802Z,13.91
2022-10-06T20:08:26.270Z,13.85
2022-10-06T20:13:54.240Z,13.82
2022-10-06T20:19:19.473Z,13.77
2022-10-06T20:24:45.276Z,13.76
2022-10-06T20:30:11.155Z,13.69
2022-10-06T20:35:36.561Z,13.68
2022-10-06T20:41:03.099Z,13.66
2022-10-06T20:46:32.288Z,13.66
2022-10-06T20:51:57.422Z,13.56
2022-10-06T20:57:23.448Z,13.50
2022-10-06T21:02:48.196Z,13.43
2022-10-06T21:08:13.882Z,13.36
2022-10-06T21:13:48.451Z,13.21
2022-10-06T21:19:16.046Z,13.16
2022-10-06T21:24:40.225Z,13.04
2022-10-06T21:30:10.219Z,13.03
2022-10-06T21:35:34.126Z,12.92
2022-10-06T21:41:02.517Z,12.91
2022-10-06T21:46:29.645Z,12.85
2022-10-06T21:51:58.370Z,12.85
2022-10-06T21:57:22.670Z,12.82
2022-10-06T22:02:48.411Z,12.78
2022-10-06T22:08:13.402Z,12.84
2022-10-06T22:13:40.457Z,12.76
2022-10-06T22:19:08.230Z,12.73
2022-10-06T22:24:34.237Z,12.75
2022-10-06T22:29:58.958Z,12.78
2022-10-06T22:35:27.091Z,12.78
2022-10-06T22:40:51.780Z,12.82
2022-10-06T22:46:17.163Z,12.80
2022-10-06T22:51:56.186Z,12.76
2022-10-06T22:57:20.840Z,12.74
2022-10-06T23:02:45.066Z,12.76
2022-10-06T23:08:10.650Z,12.71
2022-10-06T23:13:34.671Z,12.68
2022-10-06T23:18:58.918Z,12.65
2022-10-06T23:24:26.001Z,12.62
2022-10-06T23:29:50.485Z,12.60
2022-10-06T23:35:14.663Z,12.51
2022-10-06T23:40:40.197Z,12.45
2022-10-06T23:46:05.375Z,12.38
2022-10-06T23:51:29.402Z,12.36
2022-10-06T23:56:56.742Z,12.29
